Frankfurt, Germany
Current Conditions -  °F | °C
As of 12:50 AM on Tuesday 23 Dec 2014 (Local Time) from EDDB Reporting Station
Light Rain Light Rain  
Wind Chill:   Ceiling: 600
Heat Index:   Visibility: 6mi
Dew Point:   Wind: 22mph
Humidity: 100%   Direction: 240°WSW
Pressure: 29.8"   Gusts: NA
Location:  52.34°N, 14.55°E
Report Text: EDDB 222350Z 24019KT 9999 -RA BKN006 09/09 Q1009 TEMPO 24015G25KT SCT006
Loading
Personal Weather Stations






























Interactive Weather Map New forecast layout! Learn more

10-Day Weather Forecast

Advertisements
Track Severe Weather on mobile